createdAt,value
2017-11-18T00:00:21.667Z,56.05
2017-11-18T00:02:49.091Z,66.90
2017-11-18T00:05:16.524Z,64.37
2017-11-18T00:07:43.962Z,60.53
2017-11-18T00:10:11.402Z,62.78
2017-11-18T00:12:38.835Z,67.20
2017-11-18T00:15:06.284Z,66.07
2017-11-18T00:17:33.717Z,64.10
2017-11-18T00:20:01.143Z,65.25
2017-11-18T00:22:28.578Z,63.45
2017-11-18T00:24:56.018Z,61.70
2017-11-18T00:27:23.466Z,63.47
2017-11-18T00:29:50.908Z,59.78
2017-11-18T00:32:18.342Z,64.35
2017-11-18T00:34:45.773Z,64.70
2017-11-18T00:37:13.206Z,66.40
2017-11-18T00:39:40.666Z,68.07
2017-11-18T00:42:08.101Z,66.72
2017-11-18T00:44:35.536Z,68.40
2017-11-18T00:47:02.966Z,68.25
2017-11-18T00:49:30.397Z,66.47
2017-11-18T00:51:57.847Z,65.90
2017-11-18T00:54:25.285Z,70.55
2017-11-18T00:56:52.722Z,67.78
2017-11-18T00:59:20.162Z,62.83
2017-11-18T01:01:47.602Z,68.45
2017-11-18T01:04:15.058Z,64.87
2017-11-18T01:06:42.484Z,64.95
2017-11-18T01:09:09.887Z,66.32
2017-11-18T01:11:37.352Z,59.08
2017-11-18T01:14:04.785Z,72.53
2017-11-18T01:16:32.236Z,69.87
2017-11-18T01:18:59.674Z,67.68
2017-11-18T01:21:27.108Z,64.40
2017-11-18T01:23:54.538Z,61.50
2017-11-18T01:26:21.970Z,62.90
2017-11-18T01:28:49.426Z,61.97
2017-11-18T01:31:16.868Z,67.87
2017-11-18T01:33:44.297Z,60.88
2017-11-18T01:36:11.733Z,66.60
2017-11-18T01:38:39.174Z,65.60
2017-11-18T01:41:06.630Z,67.50
2017-11-18T01:43:34.062Z,61.95
2017-11-18T01:46:01.490Z,66.10
2017-11-18T01:48:28.922Z,69.47
2017-11-18T01:50:56.357Z,62.90
2017-11-18T01:53:23.815Z,65.05
2017-11-18T01:55:51.256Z,64.43
2017-11-18T01:58:18.701Z,67.03
2017-11-18T02:00:46.137Z,63.67
2017-11-18T02:03:13.565Z,64.70
2017-11-18T02:05:41.005Z,68.40
2017-11-18T02:08:08.441Z,70.90
2017-11-18T02:10:35.893Z,69.15
2017-11-18T02:13:03.335Z,68.50
2017-11-18T02:15:30.766Z,66.78
2017-11-18T02:17:58.196Z,62.13
2017-11-18T02:20:25.625Z,64.65
2017-11-18T02:22:53.053Z,66.95
2017-11-18T02:25:20.486Z,67.20
2017-11-18T02:27:47.942Z,64.70
2017-11-18T02:30:15.374Z,63.75
2017-11-18T02:32:42.798Z,61.05
2017-11-18T02:35:10.235Z,66.25
2017-11-18T02:37:37.657Z,67.72
2017-11-18T02:40:05.101Z,68.12
2017-11-18T02:42:32.540Z,68.85
2017-11-18T02:44:59.971Z,72.72
2017-11-18T02:47:27.405Z,61.00
2017-11-18T02:49:54.837Z,58.83
2017-11-18T02:52:22.287Z,58.30
2017-11-18T02:54:49.721Z,52.50
2017-11-18T02:57:17.169Z,55.03
2017-11-18T02:59:44.610Z,53.67
2017-11-18T03:02:12.042Z,53.17
2017-11-18T03:04:39.490Z,53.15
2017-11-18T03:07:06.925Z,52.35
2017-11-18T03:09:34.556Z,51.28
2017-11-18T03:12:01.986Z,52.95
2017-11-18T03:14:29.416Z,49.65
2017-11-18T03:16:56.880Z,50.08
2017-11-18T03:19:24.319Z,47.50
2017-11-18T03:21:51.754Z,49.72
2017-11-18T03:24:19.202Z,53.78
2017-11-18T03:26:46.625Z,54.15
2017-11-18T03:29:14.058Z,52.78
2017-11-18T03:31:41.512Z,53.87
2017-11-18T03:34:08.946Z,54.13
2017-11-18T03:36:36.383Z,55.28
2017-11-18T03:39:03.813Z,52.55
2017-11-18T03:41:31.250Z,56.15
2017-11-18T03:43:58.734Z,52.47
2017-11-18T03:46:26.166Z,53.40
2017-11-18T03:48:53.612Z,52.75
2017-11-18T03:51:21.043Z,58.92
2017-11-18T03:53:48.481Z,52.85
2017-11-18T03:56:15.958Z,53.30
2017-11-18T03:58:43.398Z,52.55
2017-11-18T04:01:10.842Z,52.60
2017-11-18T04:03:38.273Z,50.55
2017-11-18T04:06:05.719Z,52.25
2017-11-18T04:08:33.170Z,51.65
2017-11-18T04:11:00.607Z,53.22
2017-11-18T04:13:28.046Z,52.33
2017-11-18T04:15:55.478Z,53.42
2017-11-18T04:18:22.905Z,51.33
2017-11-18T04:20:50.354Z,54.95
2017-11-18T04:23:17.794Z,55.10
2017-11-18T04:25:45.229Z,56.97
2017-11-18T04:28:12.663Z,58.35
2017-11-18T04:30:40.092Z,55.58
2017-11-18T04:33:07.543Z,57.28
2017-11-18T04:35:34.969Z,66.97
2017-11-18T04:38:02.410Z,59.13
2017-11-18T04:40:29.843Z,52.20
2017-11-18T04:42:57.277Z,53.25
2017-11-18T04:45:24.726Z,54.55
2017-11-18T04:47:52.159Z,51.22
2017-11-18T04:50:19.596Z,54.13
2017-11-18T04:52:47.027Z,53.60
2017-11-18T04:55:14.458Z,53.40
2017-11-18T04:57:41.914Z,50.20
2017-11-18T05:00:09.344Z,52.38
2017-11-18T05:02:36.783Z,51.92
2017-11-18T05:05:04.219Z,50.70
2017-11-18T05:07:31.648Z,49.35
2017-11-18T05:09:59.106Z,50.08
2017-11-18T05:12:26.541Z,46.37
2017-11-18T05:14:53.975Z,47.53
2017-11-18T05:17:21.402Z,41.17
2017-11-18T05:19:48.839Z,43.38
2017-11-18T05:22:16.286Z,39.40
2017-11-18T05:24:43.718Z,42.13
2017-11-18T05:27:11.155Z,40.60
2017-11-18T05:29:38.590Z,40.35
2017-11-18T05:32:06.022Z,36.40
2017-11-18T05:34:33.474Z,37.08
2017-11-18T05:37:00.913Z,35.05
2017-11-18T05:39:28.350Z,30.55
2017-11-18T05:41:55.786Z,30.55
2017-11-18T05:44:23.217Z,27.40
2017-11-18T05:46:50.665Z,32.20
2017-11-18T05:49:18.126Z,32.20
2017-11-18T05:51:45.558Z,33.03
2017-11-18T05:54:12.993Z,35.00
2017-11-18T05:56:40.438Z,35.58
2017-11-18T05:59:07.899Z,36.30
2017-11-18T06:01:35.341Z,36.53
2017-11-18T06:04:02.772Z,34.45
2017-11-18T06:06:30.195Z,31.58
2017-11-18T06:08:57.621Z,27.83
2017-11-18T06:11:25.071Z,26.60
2017-11-18T06:13:52.511Z,27.87
2017-11-18T06:16:19.935Z,25.85
2017-11-18T06:18:47.356Z,28.05
2017-11-18T06:21:14.786Z,27.60
2017-11-18T06:23:42.230Z,25.83
2017-11-18T06:26:09.663Z,28.12
2017-11-18T06:28:37.103Z,26.25
2017-11-18T06:31:04.525Z,26.40
2017-11-18T06:33:31.954Z,25.35
2017-11-18T06:35:59.405Z,26.92
2017-11-18T06:38:26.829Z,27.67
2017-11-18T06:40:54.257Z,26.98
2017-11-18T06:43:21.701Z,29.95
2017-11-18T06:45:49.130Z,27.95
2017-11-18T06:48:16.567Z,26.85
2017-11-18T06:50:43.998Z,29.87
2017-11-18T06:53:11.426Z,29.05
2017-11-18T06:55:38.875Z,28.23
2017-11-18T06:58:06.303Z,27.87
2017-11-18T07:00:33.731Z,30.80
2017-11-18T07:03:01.162Z,28.75
2017-11-18T07:05:28.590Z,27.35
2017-11-18T07:07:56.033Z,28.40
2017-11-18T07:10:23.465Z,28.90
2017-11-18T07:12:50.905Z,32.90
2017-11-18T07:15:18.348Z,30.05
2017-11-18T07:17:45.781Z,31.77
2017-11-18T07:20:13.213Z,27.42
2017-11-18T07:22:40.641Z,32.33
2017-11-18T07:25:08.070Z,29.17
2017-11-18T07:27:35.514Z,30.95
2017-11-18T07:30:02.942Z,32.95
2017-11-18T07:32:30.366Z,32.20
2017-11-18T07:34:57.794Z,31.90
2017-11-18T07:37:25.226Z,30.12
2017-11-18T07:39:52.674Z,31.12
2017-11-18T07:42:20.110Z,27.10
2017-11-18T07:44:47.541Z,30.05
2017-11-18T07:47:14.973Z,27.73
2017-11-18T07:49:42.404Z,29.75
2017-11-18T07:52:09.851Z,29.60
2017-11-18T07:54:37.278Z,28.35
2017-11-18T07:57:04.706Z,26.67
2017-11-18T07:59:32.137Z,26.10
2017-11-18T08:01:59.563Z,26.77
2017-11-18T08:04:27.009Z,22.92
2017-11-18T08:06:54.437Z,23.10
2017-11-18T08:09:21.874Z,23.70
2017-11-18T08:11:49.307Z,23.27
2017-11-18T08:14:16.728Z,25.15
2017-11-18T08:16:44.137Z,25.95
2017-11-18T08:19:11.597Z,27.75
2017-11-18T08:21:39.031Z,29.55
2017-11-18T08:24:06.461Z,29.02
2017-11-18T08:26:33.896Z,27.10
2017-11-18T08:29:01.321Z,27.02
2017-11-18T08:31:28.749Z,24.15
2017-11-18T08:33:56.193Z,24.20
2017-11-18T08:36:35.486Z,24.85
2017-11-18T08:39:02.930Z,21.75
2017-11-18T08:41:30.373Z,23.27
2017-11-18T08:43:57.806Z,22.80
2017-11-18T08:46:25.250Z,22.77
2017-11-18T08:48:52.681Z,21.65
2017-11-18T08:51:20.118Z,20.92
2017-11-18T08:53:47.556Z,26.62
2017-11-18T08:56:14.995Z,19.15
2017-11-18T08:58:42.442Z,20.58
2017-11-18T09:01:09.873Z,21.33
2017-11-18T09:03:37.331Z,18.05
2017-11-18T09:06:04.782Z,18.25
2017-11-18T09:08:32.235Z,18.10
2017-11-18T09:10:59.685Z,17.80
2017-11-18T09:13:27.129Z,18.08
2017-11-18T09:15:54.583Z,19.15
2017-11-18T09:18:22.021Z,18.80
2017-11-18T09:20:49.473Z,16.05
2017-11-18T09:23:16.911Z,17.08
2017-11-18T09:25:44.349Z,17.52
2017-11-18T09:28:11.782Z,17.23
2017-11-18T09:30:39.217Z,16.58
2017-11-18T09:33:06.789Z,15.80
2017-11-18T09:35:34.313Z,13.95
2017-11-18T09:38:01.737Z,15.33
2017-11-18T09:40:29.170Z,15.27
2017-11-18T09:42:56.620Z,14.38
2017-11-18T09:45:24.071Z,14.67
2017-11-18T09:47:51.526Z,15.40
2017-11-18T09:50:18.970Z,15.20
2017-11-18T09:52:46.406Z,12.98
2017-11-18T09:55:13.850Z,11.68
2017-11-18T09:57:41.297Z,11.90
2017-11-18T10:00:08.740Z,11.53
2017-11-18T10:02:36.197Z,10.95
2017-11-18T10:05:03.651Z,10.98
2017-11-18T10:07:31.092Z,13.30
2017-11-18T10:09:58.534Z,11.53
2017-11-18T10:12:25.963Z,10.30
2017-11-18T10:14:53.394Z,12.23
2017-11-18T10:17:20.830Z,11.10
2017-11-18T10:19:48.269Z,12.10
2017-11-18T10:22:15.723Z,12.85
2017-11-18T10:24:43.157Z,13.05
2017-11-18T10:27:10.594Z,11.05
2017-11-18T10:29:38.030Z,12.50
2017-11-18T10:32:05.478Z,12.55
2017-11-18T10:34:32.930Z,12.15
2017-11-18T10:37:00.369Z,13.40
2017-11-18T10:39:27.803Z,11.95
2017-11-18T10:41:55.243Z,12.90
2017-11-18T10:44:22.682Z,13.18
2017-11-18T10:46:50.140Z,13.85
2017-11-18T10:49:17.574Z,11.52
2017-11-18T10:51:45.007Z,13.00
2017-11-18T10:54:12.446Z,13.20
2017-11-18T10:56:39.865Z,12.83
2017-11-18T10:59:07.310Z,12.87
2017-11-18T11:01:34.752Z,14.13
2017-11-18T11:04:02.186Z,14.25
2017-11-18T11:06:29.619Z,13.10
2017-11-18T11:08:57.060Z,14.52
2017-11-18T11:11:24.511Z,13.23
2017-11-18T11:13:51.942Z,14.27
2017-11-18T11:16:19.378Z,12.73
2017-11-18T11:18:46.812Z,12.32
2017-11-18T11:21:14.245Z,11.68
2017-11-18T11:23:41.695Z,10.20
2017-11-18T11:26:09.142Z,11.60
2017-11-18T11:28:36.588Z,10.43
2017-11-18T11:31:04.026Z,10.70
2017-11-18T11:33:31.461Z,11.12
2017-11-18T11:35:58.903Z,12.25
2017-11-18T11:38:26.326Z,11.40
2017-11-18T11:40:53.761Z,10.30
2017-11-18T11:43:21.207Z,10.02
2017-11-18T11:45:48.658Z,10.27
2017-11-18T11:48:16.117Z,10.77
2017-11-18T11:50:43.545Z,10.40
2017-11-18T11:53:10.979Z,8.68
2017-11-18T11:55:38.427Z,10.10
2017-11-18T11:58:05.887Z,9.77
2017-11-18T12:00:33.318Z,9.82
2017-11-18T12:03:00.750Z,10.57
2017-11-18T12:05:28.179Z,10.17
2017-11-18T12:07:55.621Z,9.68
2017-11-18T12:10:23.055Z,8.52
2017-11-18T12:12:50.486Z,10.02
2017-11-18T12:15:17.915Z,9.15
2017-11-18T12:17:45.338Z,10.57
2017-11-18T12:20:12.807Z,9.50
2017-11-18T12:22:40.233Z,9.33
2017-11-18T12:25:07.674Z,10.43
2017-11-18T12:27:35.113Z,10.25
2017-11-18T12:30:02.565Z,10.57
2017-11-18T12:32:29.997Z,10.57
2017-11-18T12:34:57.454Z,10.88
2017-11-18T12:37:24.886Z,12.23
2017-11-18T12:39:52.325Z,10.68
2017-11-18T12:42:19.802Z,12.32
2017-11-18T12:44:47.235Z,11.23
2017-11-18T12:47:14.677Z,10.03
2017-11-18T12:49:42.110Z,11.85
2017-11-18T12:52:09.545Z,10.45
2017-11-18T12:54:36.998Z,11.25
2017-11-18T12:57:04.442Z,11.70
2017-11-18T12:59:31.890Z,11.70
2017-11-18T13:01:59.322Z,12.98
2017-11-18T13:04:26.779Z,12.10
2017-11-18T13:06:54.226Z,14.15
2017-11-18T13:09:21.650Z,13.60
2017-11-18T13:11:49.103Z,14.70
2017-11-18T13:14:16.553Z,14.40
2017-11-18T13:16:43.998Z,13.82
2017-11-18T13:19:11.433Z,13.95
2017-11-18T13:21:38.870Z,14.23
2017-11-18T13:24:06.305Z,14.40
2017-11-18T13:26:33.764Z,15.35
2017-11-18T13:29:01.210Z,14.32
2017-11-18T13:31:28.641Z,14.27
2017-11-18T13:33:56.100Z,14.75
2017-11-18T13:36:23.538Z,14.77
2017-11-18T13:38:50.991Z,15.27
2017-11-18T13:41:18.424Z,15.82
2017-11-18T13:43:45.876Z,15.43
2017-11-18T13:46:13.321Z,12.98
2017-11-18T13:48:40.754Z,15.15
2017-11-18T13:51:08.205Z,14.95
2017-11-18T13:53:35.638Z,15.70
2017-11-18T13:56:03.094Z,14.35
2017-11-18T13:58:30.526Z,15.68
2017-11-18T14:00:57.982Z,13.52
2017-11-18T14:03:25.422Z,15.63
2017-11-18T14:05:52.867Z,15.07
2017-11-18T14:08:20.313Z,16.02
2017-11-18T14:10:47.759Z,15.38
2017-11-18T14:13:15.194Z,16.80
2017-11-18T14:15:42.634Z,16.95
2017-11-18T14:18:10.061Z,18.42
2017-11-18T14:20:37.498Z,19.62
2017-11-18T14:23:04.950Z,19.50
2017-11-18T14:25:32.382Z,19.30
2017-11-18T14:27:59.822Z,19.12
2017-11-18T14:30:27.249Z,19.35
2017-11-18T14:32:54.681Z,18.77
2017-11-18T14:35:22.133Z,17.05
2017-11-18T14:37:49.573Z,18.55
2017-11-18T14:40:17.001Z,17.45
2017-11-18T14:42:44.457Z,18.45
2017-11-18T14:45:11.886Z,15.93
2017-11-18T14:47:39.324Z,18.05
2017-11-18T14:50:06.762Z,17.10
2017-11-18T14:52:34.190Z,17.15
2017-11-18T14:55:01.643Z,16.52
2017-11-18T14:57:29.073Z,15.13
2017-11-18T14:59:56.507Z,17.30
2017-11-18T15:02:23.950Z,18.55
2017-11-18T15:04:51.381Z,15.07
2017-11-18T15:07:18.810Z,14.98
2017-11-18T15:09:46.238Z,15.52
2017-11-18T15:12:13.672Z,15.25
2017-11-18T15:14:41.110Z,14.87
2017-11-18T15:30:44.050Z,15.43
2017-11-18T15:33:11.494Z,15.70
2017-11-18T15:35:39.274Z,15.15
2017-11-18T15:38:12.417Z,15.00
2017-11-18T15:40:39.845Z,15.95
2017-11-18T15:43:09.644Z,15.23
2017-11-18T15:45:40.515Z,15.07
2017-11-18T15:48:13.450Z,15.85
2017-11-18T15:50:48.393Z,16.33
2017-11-18T15:53:21.437Z,15.13
2017-11-18T15:55:54.345Z,15.77
2017-11-18T15:58:25.358Z,15.57
2017-11-18T16:14:18.874Z,16.83
2017-11-18T16:16:46.299Z,15.70
2017-11-18T16:19:13.817Z,16.65
2017-11-18T16:21:41.246Z,14.25
2017-11-18T16:24:08.694Z,13.40
2017-11-18T16:26:36.116Z,15.50
2017-11-18T16:29:03.550Z,13.82
2017-11-18T16:31:30.979Z,13.30
2017-11-18T16:33:58.410Z,14.25
2017-11-18T16:36:25.838Z,14.60
2017-11-18T16:38:53.266Z,13.57
2017-11-18T16:41:20.713Z,14.70
2017-11-18T16:43:48.147Z,13.40
2017-11-18T16:46:16.947Z,13.82
2017-11-18T16:48:44.420Z,13.10
2017-11-18T16:51:11.854Z,13.70
2017-11-18T16:53:39.314Z,13.32
2017-11-18T16:56:13.994Z,12.57
2017-11-18T16:58:51.190Z,13.25
2017-11-18T17:01:21.159Z,12.55
2017-11-18T17:03:50.854Z,13.85
2017-11-18T17:06:19.781Z,14.10
2017-11-18T17:08:47.217Z,14.55
2017-11-18T17:11:14.659Z,13.95
2017-11-18T17:13:42.097Z,13.02
2017-11-18T17:16:09.537Z,13.62
2017-11-18T17:18:36.965Z,11.43
2017-11-18T17:21:04.424Z,12.77
2017-11-18T17:23:32.035Z,13.40
2017-11-18T17:26:02.015Z,12.65
2017-11-18T17:28:29.458Z,12.10
2017-11-18T17:30:57.541Z,12.30
2017-11-18T17:33:25.755Z,13.20
2017-11-18T17:35:54.808Z,12.10
2017-11-18T17:38:22.230Z,12.88
2017-11-18T17:40:49.662Z,11.00
2017-11-18T17:43:22.212Z,12.48
2017-11-18T17:45:49.645Z,12.68
2017-11-18T17:48:17.095Z,11.95
2017-11-18T17:50:44.530Z,11.70
2017-11-18T17:53:12.092Z,11.52
2017-11-18T17:55:40.482Z,11.40
2017-11-18T17:58:08.682Z,12.02
2017-11-18T18:00:36.151Z,12.20
2017-11-18T18:03:04.812Z,11.75
2017-11-18T18:05:32.234Z,13.55
2017-11-18T18:08:07.670Z,12.27
2017-11-18T18:10:35.097Z,12.98
2017-11-18T18:13:02.549Z,12.07
2017-11-18T18:15:29.979Z,13.25
2017-11-18T18:17:57.406Z,13.02
2017-11-18T18:20:24.821Z,12.55
2017-11-18T18:22:52.250Z,14.05
2017-11-18T18:25:19.697Z,14.32
2017-11-18T18:27:47.125Z,11.93
2017-11-18T18:30:14.554Z,12.50
2017-11-18T18:32:41.990Z,14.40
2017-11-18T18:35:09.413Z,13.73
2017-11-18T18:37:36.858Z,14.45
2017-11-18T18:40:04.290Z,14.77
2017-11-18T18:42:31.717Z,14.13
2017-11-18T18:44:59.147Z,12.60
2017-11-18T18:47:26.534Z,13.48
2017-11-18T18:49:54.021Z,12.90
2017-11-18T18:52:21.454Z,13.77
2017-11-18T18:54:48.881Z,14.10
2017-11-18T18:57:16.312Z,14.40
2017-11-18T18:59:43.739Z,15.10
2017-11-18T19:02:11.181Z,14.00
2017-11-18T19:04:38.607Z,14.20
2017-11-18T19:07:06.034Z,15.57
2017-11-18T19:09:33.467Z,14.02
2017-11-18T19:12:00.898Z,14.02
2017-11-18T19:14:28.342Z,15.57
2017-11-18T19:16:55.766Z,14.40
2017-11-18T19:19:23.190Z,13.15
2017-11-18T19:21:50.617Z,14.18
2017-11-18T19:24:18.049Z,13.70
2017-11-18T19:26:45.519Z,12.90
2017-11-18T19:29:12.928Z,14.25
2017-11-18T19:31:40.360Z,13.77
2017-11-18T19:34:07.785Z,14.02
2017-11-18T19:36:35.210Z,11.93
2017-11-18T19:39:02.669Z,13.52
2017-11-18T19:41:30.098Z,11.93
2017-11-18T19:43:57.523Z,11.40
2017-11-18T19:46:24.946Z,10.98
2017-11-18T19:48:52.373Z,10.77
2017-11-18T19:51:19.822Z,10.45
2017-11-18T19:53:47.254Z,11.05
2017-11-18T19:56:14.673Z,11.15
2017-11-18T19:58:42.109Z,10.60
2017-11-18T20:01:09.534Z,10.82
2017-11-18T20:03:36.977Z,10.15
2017-11-18T20:06:04.409Z,12.23
2017-11-18T20:08:31.846Z,11.48
2017-11-18T20:10:59.273Z,10.73
2017-11-18T20:13:26.717Z,12.27
2017-11-18T20:15:54.149Z,10.80
2017-11-18T20:18:21.576Z,13.00
2017-11-18T20:20:49.006Z,12.15
2017-11-18T20:23:16.441Z,12.55
2017-11-18T20:25:43.886Z,12.25
2017-11-18T20:28:11.326Z,12.07
2017-11-18T20:30:38.750Z,12.00
2017-11-18T20:33:06.177Z,11.25
2017-11-18T20:35:33.612Z,12.85
2017-11-18T20:38:01.056Z,11.07
2017-11-18T20:40:28.477Z,12.32
2017-11-18T20:42:55.910Z,11.75
2017-11-18T20:45:23.332Z,10.90
2017-11-18T20:47:50.763Z,12.02
2017-11-18T20:50:18.210Z,12.30
2017-11-18T20:52:45.638Z,12.15
2017-11-18T20:55:13.070Z,12.13
2017-11-18T20:57:40.510Z,11.20
2017-11-18T21:00:07.937Z,12.45
2017-11-18T21:02:35.368Z,12.23
2017-11-18T21:05:02.811Z,11.50
2017-11-18T21:07:30.254Z,11.18
2017-11-18T21:09:57.686Z,11.45
2017-11-18T21:12:25.169Z,11.93
2017-11-18T21:14:52.602Z,11.57
2017-11-18T21:17:20.025Z,12.40
2017-11-18T21:19:47.450Z,13.05
2017-11-18T21:22:14.901Z,11.80
2017-11-18T21:24:42.334Z,12.43
2017-11-18T21:27:09.762Z,13.70
2017-11-18T21:29:37.191Z,12.45
2017-11-18T21:32:04.618Z,12.15
2017-11-18T21:34:32.047Z,12.82
2017-11-18T21:37:01.014Z,11.85
2017-11-18T21:39:28.458Z,13.57
2017-11-18T21:41:55.893Z,11.73
2017-11-18T21:44:23.330Z,13.62
2017-11-18T21:46:50.945Z,12.75
2017-11-18T21:49:18.370Z,12.10
2017-11-18T21:51:45.930Z,12.52
2017-11-18T21:54:13.395Z,13.10
2017-11-18T21:56:40.829Z,12.45
2017-11-18T21:59:10.896Z,12.75
2017-11-18T22:01:39.057Z,11.55
2017-11-18T22:04:09.797Z,12.65
2017-11-18T22:06:37.225Z,12.18
2017-11-18T22:09:06.286Z,11.95
2017-11-18T22:11:33.714Z,12.05
2017-11-18T22:14:01.151Z,12.77
2017-11-18T22:16:28.598Z,11.70
2017-11-18T22:18:58.973Z,12.82
2017-11-18T22:21:27.127Z,10.85
2017-11-18T22:23:57.208Z,12.15
2017-11-18T22:26:24.690Z,12.15
2017-11-18T22:28:52.141Z,12.25
2017-11-18T22:31:21.498Z,13.00
2017-11-18T22:33:48.928Z,12.60
2017-11-18T22:36:17.495Z,13.25
2017-11-18T22:38:45.152Z,12.75
2017-11-18T22:41:12.598Z,12.20
2017-11-18T22:43:40.330Z,12.37
2017-11-18T22:46:07.763Z,12.93
2017-11-18T22:48:36.504Z,13.05
2017-11-18T22:51:03.969Z,12.68
2017-11-18T22:53:34.597Z,12.43
2017-11-18T22:56:02.021Z,14.02
2017-11-18T22:58:29.471Z,13.57
2017-11-18T23:00:56.970Z,13.02
2017-11-18T23:03:24.406Z,12.77
2017-11-18T23:05:51.929Z,13.52
2017-11-18T23:08:19.353Z,12.57
2017-11-18T23:10:46.862Z,13.65
2017-11-18T23:13:14.285Z,12.77
2017-11-18T23:15:41.738Z,13.07
2017-11-18T23:18:09.164Z,13.95
2017-11-18T23:20:36.602Z,13.85
2017-11-18T23:23:04.032Z,12.70
2017-11-18T23:25:31.461Z,12.75
2017-11-18T23:27:58.892Z,11.73
2017-11-18T23:30:26.321Z,11.80
2017-11-18T23:32:53.749Z,11.98
2017-11-18T23:35:21.179Z,11.77
2017-11-18T23:37:48.621Z,11.98
2017-11-18T23:40:16.046Z,11.75
2017-11-18T23:42:43.482Z,11.02
2017-11-18T23:45:10.914Z,10.20
2017-11-18T23:47:38.346Z,10.60
2017-11-18T23:50:05.790Z,10.88
2017-11-18T23:52:33.242Z,10.50
2017-11-18T23:55:00.658Z,10.30
2017-11-18T23:57:28.078Z,9.25
2017-11-18T23:59:55.510Z,9.20
